MARK1: Marion Levee

Data processed at Sun Apr 30 2017 22:37


All information presented herein is the property of the government of the United States of America and may be revised or deleted at any time without prior notice.
Dissemination of this information without the expressed written consent of the Public Affairs Office, Tulsa District U.S. Army Corps of Engineers is strictly prohibited.
These data are gathered electronically and, as presented, have not undergone any form of quality control. These data are not guaranteed to be valid or correct.
Go to home page.
Go to station list.
Go to station map.

Upstream stations:

Downstream station:
Previous Day
Next Day
Current Day
    
SHEF ID:       MARK1     COTTONWOOD R AT MARION, KS
STATION TYPE:  

               PRECIP     STAGE  RIV-FLOW  BAT-LOAD
                   in        ft       cfs      volt
              Ccp-Rev   Ccp-Rev   Ccp-Rev   Ccp-Rev
(US/Central)
04/30 00:00      0.00      6.41       628     12.83
04/30 01:00      0.00      6.50       670     12.89
04/30 02:00      0.01      6.59       712     12.89
04/30 03:00      0.01      6.65       740     12.83
04/30 04:00      0.00      6.73       778     12.89
04/30 05:00      0.32      6.77       796     12.89
04/30 06:00      0.10      6.83       825     12.83
04/30 07:00      0.01      6.92       867     12.83
04/30 08:00      0.00      7.12       960     12.89
04/30 09:00      0.00      7.56      1167     12.89
04/30 10:00      0.00      7.95      1372     12.95
04/30 11:00      0.00      8.15      1479     13.48
04/30 12:00      0.04      8.30      1559     13.48
04/30 13:00      0.01      8.60      1720     13.42
04/30 14:00      0.03      8.75      1800     13.65
04/30 15:00      0.00      8.89      1875     13.65
04/30 16:00      0.00      9.01      1940     13.71
04/30 17:00      0.00      8.93      1897     13.65
04/30 18:00      0.00      9.07      1972     13.48
04/30 19:00      0.00      9.06      1966     13.24
04/30 20:00      0.01      9.05      1961     13.18
04/30 21:00      0.01      8.93      1897     13.12
04/30 22:00      0.03      9.07      1972     13.12
04/30 23:00      ----      ----      ----      ----